Time;durP1;ratioP1;P1;durP2;ratioP2;P2;SDS_P1;SDS_P2;PMS_P1;PMS_P2;Temp;Humidity;BMP_temperature;BMP_pressure;BME280_temperature;BME280_humidity;BME280_pressure;Samples;Min_cycle;Max_cycle;Signal;HPM_P1;HPM_P2
2022/05/14 00:00:38;;;;;;;6.95;3.85;;;;;;;20.27;55.16;100417.91;5398571;32;35137;-71
2022/05/14 00:03:41;;;;;;;6.40;3.60;;;;;;;19.74;56.81;100421.13;5357456;32;34240;-69
2022/05/14 00:06:43;;;;;;;9.75;3.75;;;;;;;19.79;56.87;100438.59;5398609;32;35070;-70
2022/05/14 00:09:45;;;;;;;7.07;3.47;;;;;;;19.67;57.24;100437.69;5384219;32;36101;-70
2022/05/14 00:13:06;;;;;;;10.57;4.37;;;;;;;19.52;57.69;100426.38;5374432;32;34592;-66
2022/05/14 00:16:15;;;;;;;10.30;3.65;;;;;;;19.84;56.42;100445.28;5391529;32;34372;-70
2022/05/14 00:19:18;;;;;;;8.43;3.75;;;;;;;20.22;55.43;100441.44;5384714;32;34740;-69
2022/05/14 00:22:20;;;;;;;;;;;;;;;19.53;57.41;100446.72;5395280;32;45121;-70
2022/05/14 00:25:22;;;;;;;8.95;3.60;;;;;;;20.08;55.80;100444.31;5367727;32;34870;-67
2022/05/14 00:28:24;;;;;;;9.73;3.60;;;;;;;19.82;56.13;100451.66;5399844;32;34936;-68
2022/05/14 00:31:26;;;;;;;7.30;4.05;;;;;;;20.13;54.97;100435.00;5380124;32;34729;-69
2022/05/14 00:34:28;;;;;;;10.05;4.12;;;;;;;19.57;56.77;100445.50;5389368;32;34657;-66
2022/05/14 00:37:30;;;;;;;6.65;3.65;;;;;;;19.41;57.55;100451.16;5392260;32;37111;-66
2022/05/14 00:40:35;;;;;;;9.63;4.00;;;;;;;19.77;56.29;100460.03;5382824;32;34827;-67
2022/05/14 00:43:55;;;;;;;5.87;3.37;;;;;;;19.41;57.56;100459.16;5399728;32;34918;-67
2022/05/14 00:47:08;;;;;;;7.82;3.50;;;;;;;19.52;57.13;100454.84;5381680;32;44726;-71
2022/05/14 00:50:31;;;;;;;7.78;3.70;;;;;;;19.46;57.29;100453.47;5381374;32;34889;-71
2022/05/14 00:53:36;;;;;;;6.43;3.53;;;;;;;19.25;57.94;100439.91;5378695;32;35395;-67
2022/05/14 00:56:41;;;;;;;10.02;4.18;;;;;;;19.81;56.64;100456.16;5378563;32;34611;-68
2022/05/14 00:59:43;;;;;;;8.60;4.25;;;;;;;19.05;59.54;100453.87;5385613;32;34785;-70
2022/05/14 01:02:45;;;;;;;7.28;3.78;;;;;;;19.60;57.63;100460.47;5365491;32;34828;-67
2022/05/14 01:05:48;;;;;;;7.37;3.80;;;;;;;19.35;58.57;100448.94;5387716;32;35245;-69
2022/05/14 01:08:50;;;;;;;6.80;4.12;;;;;;;19.37;58.55;100456.81;5369091;32;44343;-70
2022/05/14 01:11:54;;;;;;;;;;;;;;;19.28;58.93;100458.38;5365517;32;34859;-71
2022/05/14 01:15:11;;;;;;;8.55;4.43;;;;;;;19.48;58.66;100460.37;5368549;32;35086;-68
2022/05/14 01:18:15;;;;;;;8.77;4.28;;;;;;;19.07;60.56;100458.13;5368340;32;35578;-66
2022/05/14 01:21:51;;;;;;;7.03;4.20;;;;;;;18.74;61.50;100450.78;5396335;32;34615;-66
2022/05/14 01:28:44;;;;;;;6.95;4.32;;;;;;;18.87;61.09;100458.72;5380829;32;34312;-69
2022/05/14 01:31:48;;;;;;;7.15;4.43;;;;;;;18.81;61.90;100476.00;5397459;32;35078;-66
2022/05/14 01:34:51;;;;;;;5.97;3.95;;;;;;;19.07;60.87;100474.13;5383587;32;48049;-69
2022/05/14 01:37:53;;;;;;;7.05;4.22;;;;;;;19.31;59.96;100467.94;5393550;32;34651;-66
2022/05/14 01:40:55;;;;;;;9.87;5.40;;;;;;;19.25;60.44;100463.91;5388387;32;35209;-68
2022/05/14 01:43:57;;;;;;;7.80;5.07;;;;;;;19.25;60.27;100479.88;5383778;32;34830;-69
2022/05/14 01:47:00;;;;;;;7.25;4.30;;;;;;;19.37;59.66;100473.66;5398104;32;35317;-70
2022/05/14 01:50:02;;;;;;;7.62;4.40;;;;;;;18.97;61.16;100480.22;5369626;32;34615;-67
2022/05/14 01:53:04;;;;;;;10.20;4.47;;;;;;;19.26;60.11;100473.63;5398161;32;34884;-69
2022/05/14 01:56:06;;;;;;;8.50;4.18;;;;;;;19.08;61.00;100472.31;5381891;32;33878;-69
2022/05/14 01:59:10;;;;;;;8.50;4.55;;;;;;;19.28;60.49;100474.34;5379497;32;34149;-67
2022/05/14 02:02:12;;;;;;;7.57;4.40;;;;;;;19.90;57.64;100476.81;5390011;32;35744;-69
2022/05/14 02:05:15;;;;;;;7.70;4.65;;;;;;;19.81;58.36;100468.66;5381589;32;37128;-69
2022/05/14 02:08:18;;;;;;;11.30;4.70;;;;;;;19.94;57.31;100467.59;5385346;32;35079;-70
2022/05/14 02:11:21;;;;;;;10.27;4.85;;;;;;;18.91;61.25;100466.38;5368278;32;44960;-69
2022/05/14 02:14:23;;;;;;;18.17;4.60;;;;;;;18.97;61.06;100473.06;5388497;32;34315;-66
2022/05/14 02:17:25;;;;;;;11.45;4.82;;;;;;;18.63;62.62;100480.81;5382327;32;35621;-68
2022/05/14 02:20:27;;;;;;;7.95;4.47;;;;;;;18.73;62.15;100485.50;5387315;32;34969;-66
2022/05/14 02:23:30;;;;;;;7.40;4.20;;;;;;;19.08;60.81;100477.63;5384976;32;35511;-66
2022/05/14 02:26:32;;;;;;;11.35;4.60;;;;;;;19.50;59.34;100478.91;5371444;32;34440;-69
2022/05/14 02:29:54;;;;;;;8.30;4.20;;;;;;;19.92;57.40;100480.19;5399816;32;34095;-66
2022/05/14 02:32:56;;;;;;;9.10;5.00;;;;;;;19.04;60.54;100478.81;5380257;32;46146;-66
2022/05/14 02:35:59;;;;;;;7.70;4.90;;;;;;;18.38;63.32;100479.03;5397127;32;34527;-66
2022/05/14 02:39:01;;;;;;;8.00;4.55;;;;;;;18.59;62.46;100486.44;5380511;32;35197;-66
2022/05/14 02:42:03;;;;;;;8.82;4.55;;;;;;;19.93;57.71;100483.72;5375939;32;33920;-66
2022/05/14 02:45:06;;;;;;;7.85;4.78;;;;;;;19.97;57.04;100483.38;5396465;32;35112;-66
2022/05/14 02:48:09;;;;;;;;;;;;;;;19.92;57.20;100477.53;5355633;32;34223;-66
2022/05/14 02:51:11;;;;;;;9.83;5.00;;;;;;;19.63;57.79;100478.88;5397295;32;34831;-65
2022/05/14 02:54:13;;;;;;;11.70;6.12;;;;;;;18.83;60.64;100467.91;5383032;32;35526;-69
2022/05/14 02:57:15;;;;;;;10.18;4.70;;;;;;;18.87;60.79;100488.88;5395041;32;35020;-66
2022/05/14 03:00:19;;;;;;;9.02;4.82;;;;;;;19.35;58.94;100474.75;5369555;32;34521;-71
2022/05/14 03:03:21;;;;;;;9.25;4.78;;;;;;;19.52;58.18;100492.16;5368212;32;47643;-68
2022/05/14 03:06:23;;;;;;;8.27;4.75;;;;;;;19.16;59.20;100504.56;5397620;32;34304;-66
2022/05/14 03:09:25;;;;;;;8.35;4.50;;;;;;;19.08;59.20;100498.94;5383272;32;34214;-69
2022/05/14 03:12:27;;;;;;;10.82;4.78;;;;;;;19.10;58.81;100486.34;5359612;32;35186;-66
2022/05/14 03:15:29;;;;;;;8.33;4.53;;;;;;;19.76;57.20;100506.31;5366857;32;34644;-67
2022/05/14 03:18:31;;;;;;;8.70;4.72;;;;;;;19.55;57.39;100506.09;5394400;32;34432;-69
2022/05/14 03:21:37;;;;;;;8.95;4.68;;;;;;;19.07;59.34;100510.56;5383057;32;34626;-70
2022/05/14 03:24:39;;;;;;;9.40;5.37;;;;;;;19.42;58.04;100505.31;5368853;32;35455;-67
2022/05/14 03:27:41;;;;;;;10.80;5.50;;;;;;;19.25;58.76;100517.19;5394937;32;34765;-66
2022/05/14 03:30:43;;;;;;;9.57;5.00;;;;;;;19.71;57.11;100516.50;5383659;32;34451;-67
2022/05/14 03:33:46;;;;;;;10.35;4.72;;;;;;;20.22;55.40;100519.69;5398850;32;34549;-69
2022/05/14 03:36:48;;;;;;;11.60;4.60;;;;;;;20.37;54.56;100524.81;5370129;32;35136;-66
2022/05/14 03:39:50;;;;;;;9.05;4.60;;;;;;;20.25;54.69;100519.44;5393926;32;45397;-70
2022/05/14 03:42:53;;;;;;;13.48;5.57;;;;;;;20.20;54.84;100534.94;5389823;32;34649;-66
2022/05/14 03:45:55;;;;;;;9.18;6.25;;;;;;;19.77;55.73;100531.16;5383618;32;34121;-69
2022/05/14 03:49:04;;;;;;;9.07;5.30;;;;;;;19.41;57.29;100541.78;5383670;32;34493;-66
2022/05/14 03:52:07;;;;;;;9.68;4.90;;;;;;;19.05;58.91;100544.44;5382104;32;34812;-66
2022/05/14 03:55:10;;;;;;;8.90;4.57;;;;;;;19.48;57.66;100535.03;5398461;32;34718;-70
2022/05/14 03:58:12;;;;;;;;;;;;;;;19.31;57.95;100535.41;5383881;32;34102;-72
2022/05/14 04:01:14;;;;;;;9.60;4.77;;;;;;;19.29;57.97;100553.31;5374247;32;35374;-70
2022/05/14 04:04:17;;;;;;;8.20;4.78;;;;;;;19.67;56.96;100549.69;5381215;32;34890;-69
2022/05/14 04:07:19;;;;;;;7.82;4.22;;;;;;;19.24;58.25;100547.47;5365824;32;45173;-66
2022/05/14 04:10:21;;;;;;;9.77;4.55;;;;;;;20.40;54.15;100560.09;5399160;32;34602;-67
2022/05/14 04:13:23;;;;;;;8.82;5.10;;;;;;;19.30;57.17;100562.16;5360546;32;34768;-65
2022/05/14 04:16:26;;;;;;;8.90;4.37;;;;;;;19.65;56.18;100556.97;5398206;32;36593;-66
2022/05/14 04:19:28;;;;;;;8.50;4.65;;;;;;;20.30;53.90;100545.78;5384898;32;34983;-66
2022/05/14 04:22:30;;;;;;;13.25;4.65;;;;;;;19.91;55.66;100563.00;5383222;32;35220;-71
2022/05/14 04:25:33;;;;;;;12.15;4.95;;;;;;;20.06;54.44;100571.66;5381844;32;34299;-66
2022/05/14 04:28:35;;;;;;;10.65;4.53;;;;;;;19.79;55.43;100583.44;5383878;32;34961;-65
2022/05/14 04:31:39;;;;;;;8.75;4.15;;;;;;;19.60;55.99;100596.44;5384535;32;34698;-68
2022/05/14 04:34:42;;;;;;;8.88;4.15;;;;;;;20.25;53.75;100594.16;5384974;32;32588;-65
2022/05/14 04:37:44;;;;;;;7.93;4.57;;;;;;;21.75;49.59;100584.97;5396375;32;35291;-67
2022/05/14 04:40:46;;;;;;;9.73;4.65;;;;;;;22.47;47.24;100594.97;5384056;32;35312;-70
2022/05/14 04:43:48;;;;;;;6.62;4.18;;;;;;;20.76;51.43;100595.63;5383130;32;34314;-70
2022/05/14 04:46:50;;;;;;;11.90;7.50;;;;;;;22.16;48.14;100596.75;5375832;32;46908;-71
2022/05/14 04:49:52;;;;;;;8.48;4.80;;;;;;;22.30;47.88;100587.56;5365643;32;35441;-70
2022/05/14 04:52:54;;;;;;;9.02;4.37;;;;;;;22.14;48.68;100594.19;5375230;32;34738;-66
2022/05/14 04:55:56;;;;;;;9.60;4.90;;;;;;;22.83;47.47;100598.16;5365469;32;35243;-66
2022/05/14 04:58:58;;;;;;;10.70;8.77;;;;;;;22.52;47.86;100597.28;5375721;32;34924;-69
2022/05/14 05:05:22;;;;;;;9.02;4.07;;;;;;;22.81;46.50;100606.34;5382222;32;45108;-66
2022/05/14 05:08:28;;;;;;;8.75;4.53;;;;;;;23.37;45.08;100605.03;5398576;32;34622;-66
2022/05/14 05:11:30;;;;;;;14.60;5.20;;;;;;;23.25;45.31;100609.66;5354398;32;35018;-67
2022/05/14 05:14:32;;;;;;;9.05;4.65;;;;;;;23.21;45.03;100609.06;5389694;32;35299;-67
2022/05/14 05:17:34;;;;;;;8.98;4.57;;;;;;;23.58;44.29;100611.16;5381892;32;35195;-69
2022/05/14 05:20:39;;;;;;;10.80;4.95;;;;;;;23.35;44.83;100623.09;5389549;32;34740;-70
2022/05/14 05:23:41;;;;;;;10.77;4.75;;;;;;;24.20;43.10;100611.78;5369625;32;35224;-68
2022/05/14 05:26:43;;;;;;;;;;;;;;;24.93;40.64;100617.50;5373561;32;34698;-66
2022/05/14 05:29:45;;;;;;;7.95;4.53;;;;;;;24.37;42.02;100631.75;5397270;32;37559;-67
2022/05/14 05:32:47;;;;;;;12.80;4.12;;;;;;;24.54;39.41;100622.97;5380866;32;34625;-67
2022/05/14 05:35:49;;;;;;;7.12;3.30;;;;;;;24.41;37.88;100622.41;5398228;32;44967;-67
2022/05/14 05:38:52;;;;;;;;;;;;;;;23.98;38.39;100637.09;5369215;32;35271;-69
2022/05/14 05:41:56;;;;;;;7.53;3.67;;;;;;;26.29;34.60;100634.53;5373294;32;34482;-66
2022/05/14 05:44:59;;;;;;;11.02;3.80;;;;;;;26.01;35.05;100625.69;5395691;32;34843;-68
2022/05/14 05:48:01;;;;;;;7.75;3.20;;;;;;;25.32;36.14;100627.13;5381233;32;34714;-71
2022/05/14 05:51:04;;;;;;;6.95;3.20;;;;;;;25.57;35.62;100636.34;5397843;32;35038;-67
2022/05/14 05:57:33;;;;;;;7.55;2.78;;;;;;;27.22;32.58;100642.97;5394588;32;44898;-66
2022/05/14 06:00:36;;;;;;;7.97;3.03;;;;;;;29.45;26.81;100640.03;5387469;32;36462;-67
2022/05/14 06:03:38;;;;;;;8.20;2.80;;;;;;;26.25;31.69;100648.47;5381806;32;34912;-67
2022/05/14 06:06:43;;;;;;;5.68;2.78;;;;;;;26.13;32.11;100645.16;5398063;32;34692;-67
2022/05/14 06:09:47;;;;;;;6.93;3.20;;;;;;;29.52;26.48;100632.91;5382294;32;34652;-71
2022/05/14 06:12:50;;;;;;;7.28;2.72;;;;;;;28.07;28.50;100641.88;5371433;32;44861;-66
2022/05/14 06:15:52;;;;;;;6.65;2.67;;;;;;;27.69;29.03;100650.59;5383460;32;34266;-66
2022/05/14 06:18:55;;;;;;;11.32;3.05;;;;;;;28.85;27.05;100627.88;5389696;32;35397;-67
2022/05/14 06:21:57;;;;;;;6.80;2.22;;;;;;;29.14;25.25;100627.28;5388115;32;35628;-66
2022/05/14 06:24:59;;;;;;;6.90;2.20;;;;;;;29.27;24.31;100637.56;5367954;32;35733;-66
2022/05/14 06:28:01;;;;;;;5.12;2.30;;;;;;;30.78;22.45;100632.50;5368220;32;34462;-69
2022/05/14 06:31:03;;;;;;;4.43;2.20;;;;;;;30.78;22.14;100635.22;5381946;32;35286;-70
2022/05/14 06:34:05;;;;;;;9.20;2.20;;;;;;;29.74;23.05;100638.53;5396913;32;34815;-67
2022/05/14 06:37:08;;;;;;;5.87;1.90;;;;;;;28.78;23.28;100632.25;5381212;32;34105;-66
2022/05/14 06:40:10;;;;;;;8.88;2.25;;;;;;;30.47;20.48;100646.19;5374310;32;35081;-68
2022/05/14 06:43:15;;;;;;;5.80;2.17;;;;;;;28.93;22.82;100645.97;5387784;32;34079;-66
2022/05/14 06:46:17;;;;;;;6.43;2.10;;;;;;;28.74;22.78;100643.59;5378598;32;34819;-70
2022/05/14 06:49:19;;;;;;;10.00;2.80;;;;;;;29.36;21.54;100649.19;5396976;32;44355;-70
2022/05/14 06:52:22;;;;;;;6.75;2.17;;;;;;;28.77;22.14;100645.97;5380435;32;34294;-66
2022/05/14 06:55:27;;;;;;;10.25;2.20;;;;;;;29.04;22.06;100651.00;5397228;32;35199;-66
2022/05/14 06:58:33;;;;;;;4.95;2.10;;;;;;;29.00;22.03;100649.66;5367833;32;34638;-67
2022/05/14 07:01:38;;;;;;;6.30;2.20;;;;;;;28.96;22.32;100658.28;5382860;32;34789;-68
2022/05/14 07:08:01;;;;;;;5.83;2.27;;;;;;;28.52;22.71;100670.31;5368964;32;34932;-69
2022/05/14 07:11:04;;;;;;;8.43;2.30;;;;;;;28.30;23.68;100669.09;5372863;32;35304;-70
2022/05/14 07:14:06;;;;;;;7.28;2.80;;;;;;;29.08;22.85;100671.28;5355857;32;35120;-67
2022/05/14 07:17:08;;;;;;;5.82;2.22;;;;;;;28.27;23.45;100676.69;5390322;32;34804;-67
2022/05/14 07:20:11;;;;;;;6.75;2.50;;;;;;;28.05;24.68;100683.59;5389478;32;35043;-71
2022/05/14 07:23:13;;;;;;;7.87;2.78;;;;;;;27.99;25.18;100684.25;5374424;32;34246;-70
2022/05/14 07:26:15;;;;;;;11.48;2.80;;;;;;;27.73;24.59;100684.37;5384647;32;34024;-70
2022/05/14 07:29:20;;;;;;;8.88;2.40;;;;;;;27.00;25.13;100690.19;5367935;32;34293;-66
2022/05/14 07:32:22;;;;;;;9.32;2.92;;;;;;;28.27;23.40;100684.81;5380547;32;47101;-70
2022/05/14 07:35:24;;;;;;;6.57;2.47;;;;;;;26.92;24.86;100688.31;5382823;32;34267;-68
2022/05/14 07:38:27;;;;;;;10.60;3.05;;;;;;;28.13;23.53;100690.87;5372731;32;35102;-66
2022/05/14 07:41:30;;;;;;;7.10;2.70;;;;;;;28.24;22.93;100698.66;5389854;32;35400;-70
2022/05/14 07:44:34;;;;;;;7.10;2.58;;;;;;;26.92;25.49;100688.31;5367366;32;34455;-67
2022/05/14 07:47:37;;;;;;;5.62;2.42;;;;;;;26.96;26.21;100697.75;5394651;32;34871;-68
2022/05/14 07:50:39;;;;;;;9.05;2.95;;;;;;;26.50;26.33;100695.38;5368126;32;35379;-67
2022/05/14 07:53:42;;;;;;;10.82;2.42;;;;;;;26.65;26.11;100699.19;5395645;32;34184;-69
2022/05/14 07:56:44;;;;;;;7.93;2.92;;;;;;;26.33;26.24;100705.13;5366445;32;35420;-67
2022/05/14 07:59:46;;;;;;;7.37;2.40;;;;;;;25.97;26.56;100691.66;5372292;32;35005;-66
2022/05/14 08:02:48;;;;;;;9.77;2.42;;;;;;;28.41;23.41;100681.50;5390211;32;45749;-70
2022/05/14 08:05:51;;;;;;;7.70;2.33;;;;;;;25.66;26.45;100707.25;5381149;32;33556;-69
2022/05/14 08:08:54;;;;;;;8.02;2.70;;;;;;;27.73;24.24;100700.56;5394918;32;35099;-68
2022/05/14 08:11:58;;;;;;;7.78;2.45;;;;;;;28.64;23.06;100692.44;5361798;32;35137;-68
2022/05/14 08:15:01;;;;;;;8.65;2.45;;;;;;;28.05;23.13;100697.09;5393646;32;34840;-69
2022/05/14 08:18:03;;;;;;;6.55;2.28;;;;;;;29.71;20.90;100688.50;5369568;32;34686;-68
2022/05/14 08:24:34;;;;;;;4.75;2.42;;;;;;;29.63;21.32;100684.00;5382381;32;45824;-70
2022/05/14 08:27:44;;;;;;;6.18;2.53;;;;;;;29.38;21.78;100688.63;5381558;32;34657;-69
2022/05/14 08:30:46;;;;;;;9.25;2.78;;;;;;;28.22;23.24;100695.28;5398737;32;34589;-71
2022/05/14 08:33:49;;;;;;;7.82;2.42;;;;;;;28.81;22.90;100688.72;5382533;32;34237;-69
2022/05/14 08:36:51;;;;;;;4.95;2.33;;;;;;;29.55;21.48;100684.00;5386411;32;34996;-70
2022/05/14 08:39:53;;;;;;;7.28;2.22;;;;;;;28.02;22.36;100690.19;5382573;32;35250;-70
2022/05/14 08:43:06;;;;;;;8.07;2.60;;;;;;;27.58;22.98;100677.87;5380479;32;34102;-71
2022/05/14 08:46:13;;;;;;;8.50;2.95;;;;;;;26.53;25.10;100684.28;5383354;32;35011;-69
2022/05/14 08:49:41;;;;;;;10.27;2.53;;;;;;;27.53;23.75;100681.91;5370473;32;34853;-70
2022/05/14 08:52:43;;;;;;;5.75;2.35;;;;;;;28.79;21.77;100679.94;5385762;32;37396;-69
2022/05/14 08:56:10;;;;;;;10.55;2.55;;;;;;;28.74;21.25;100665.25;5367796;32;35023;-67
2022/05/14 08:59:26;;;;;;;7.70;2.17;;;;;;;29.79;20.52;100684.91;5376905;32;35007;-69
2022/05/14 09:02:31;;;;;;;5.72;2.12;;;;;;;28.57;22.07;100683.34;5394854;32;45561;-70
2022/05/14 09:05:35;;;;;;;11.85;2.70;;;;;;;27.67;23.43;100684.97;5384250;32;34881;-67
2022/05/14 09:08:37;;;;;;;4.30;2.00;;;;;;;29.16;21.96;100667.69;5373100;32;34423;-69
2022/05/14 09:11:51;;;;;;;7.03;2.15;;;;;;;30.35;20.98;100675.59;5363312;32;34903;-67
2022/05/14 09:14:55;;;;;;;7.75;2.50;;;;;;;28.33;23.04;100681.47;5364534;32;46670;-69
2022/05/14 09:18:07;;;;;;;6.32;2.65;;;;;;;29.94;21.56;100673.12;5395345;32;34788;-70
2022/05/14 09:21:18;;;;;;;5.30;2.30;;;;;;;30.48;21.27;100674.97;5380556;32;35235;-67
2022/05/14 09:24:27;;;;;;;12.82;3.92;;;;;;;30.55;20.96;100672.38;5380733;32;46866;-68
2022/05/14 09:27:58;;;;;;;7.20;2.97;;;;;;;30.41;20.84;100668.59;5372032;32;35377;-70
2022/05/14 09:31:00;;;;;;;16.50;2.55;;;;;;;31.35;20.00;100671.75;5376656;32;33657;-67
2022/05/14 09:34:15;;;;;;;7.62;2.85;;;;;;;29.31;22.21;100675.97;5397767;32;33845;-67
2022/05/14 09:37:21;;;;;;;8.15;3.00;;;;;;;30.07;21.33;100669.81;5367295;32;34772;-67
2022/05/14 09:40:26;;;;;;;8.60;2.62;;;;;;;30.09;21.27;100665.09;5374853;32;45556;-67
2022/05/14 09:43:33;;;;;;;7.30;2.47;;;;;;;29.96;21.42;100659.41;5377792;32;35207;-72
2022/05/14 09:46:35;;;;;;;10.70;2.28;;;;;;;29.66;21.35;100653.81;5378277;32;34794;-72
2022/05/14 09:49:40;;;;;;;8.85;2.65;;;;;;;31.40;19.54;100653.03;5399334;32;34287;-71
2022/05/14 09:52:42;;;;;;;10.55;2.97;;;;;;;32.47;18.23;100662.22;5366987;32;36839;-72
2022/05/14 09:56:11;;;;;;;7.07;2.60;;;;;;;32.81;18.23;100650.53;5398280;32;35389;-66
2022/05/14 09:59:42;;;;;;;6.85;2.58;;;;;;;31.51;19.16;100649.84;5385443;32;34909;-67
2022/05/14 10:02:44;;;;;;;6.10;2.80;;;;;;;32.24;18.40;100650.66;5381014;32;35206;-70
2022/05/14 10:06:06;;;;;;;7.47;2.45;;;;;;;29.28;22.12;100644.66;5397893;32;34133;-70
2022/05/14 10:09:36;;;;;;;9.50;3.17;;;;;;;30.47;20.34;100647.03;5383753;32;35989;-68
2022/05/14 10:12:46;;;;;;;6.60;2.40;;;;;;;29.50;20.94;100642.19;5329100;32;36704;-70
2022/05/14 10:15:58;;;;;;;7.47;2.40;;;;;;;31.81;19.05;100640.59;5383960;32;34284;-69
2022/05/14 10:19:12;;;;;;;7.25;2.25;;;;;;;29.22;21.62;100639.09;5381993;32;35007;-68
2022/05/14 10:26:44;;;;;;;6.60;2.53;;;;;;;27.66;23.15;100648.19;5379228;32;34873;-67
2022/05/14 10:29:25;;;;;;;9.63;2.27;;;;;;;29.61;20.95;100647.25;5372525;32;44275;-68
2022/05/14 10:32:30;;;;;;;8.00;2.65;;;;;;;30.08;20.04;100646.31;5394280;32;34396;-68
2022/05/14 10:36:08;;;;;;;7.28;2.50;;;;;;;30.33;19.52;100636.94;5383136;32;36081;-70
2022/05/14 10:39:25;;;;;;;5.00;2.30;;;;;;;31.22;18.87;100628.94;5351943;32;34974;-68
2022/05/14 10:42:33;;;;;;;7.05;2.47;;;;;;;33.44;16.91;100630.63;5377574;32;47359;-70
2022/05/14 10:45:46;;;;;;;6.28;2.08;;;;;;;32.04;18.13;100631.44;5374351;32;196257;-72
2022/05/14 10:49:11;;;;;;;7.70;2.20;;;;;;;30.77;18.88;100627.25;5396046;32;34800;-68
2022/05/14 10:52:15;;;;;;;7.18;2.42;;;;;;;30.78;18.56;100626.22;5373767;32;34922;-70
2022/05/14 10:55:21;;;;;;;7.90;2.20;;;;;;;31.81;18.05;100628.88;5367873;32;34460;-71
2022/05/14 10:58:42;;;;;;;7.45;2.30;;;;;;;31.26;18.18;100630.31;5395606;32;44717;-69
2022/05/14 11:01:53;;;;;;;7.90;2.15;;;;;;;31.90;17.14;100621.47;5381327;32;34679;-67
2022/05/14 11:04:56;;;;;;;6.65;2.10;;;;;;;30.96;18.57;100629.44;5392068;32;48424;-70
2022/05/14 11:08:13;;;;;;;6.97;2.05;;;;;;;32.78;16.69;100609.25;5366585;32;35795;-67
2022/05/14 11:11:19;;;;;;;13.55;2.62;;;;;;;32.99;16.25;100605.66;5356251;32;35262;-68
2022/05/14 11:14:21;;;;;;;5.20;2.10;;;;;;;31.99;17.52;100618.41;5386606;32;47157;-70
2022/05/14 11:17:29;;;;;;;8.27;2.40;;;;;;;30.61;19.08;100614.69;5379483;32;34462;-71
2022/05/14 11:20:32;;;;;;;20.02;3.67;;;;;;;31.97;18.14;100600.63;5396399;32;33144;-71
2022/05/14 11:23:46;;;;;;;9.70;2.50;;;;;;;33.94;15.91;100605.66;5360462;32;36489;-70
2022/05/14 11:26:51;;;;;;;6.00;2.47;;;;;;;33.73;15.69;100610.37;5358263;32;34636;-71
2022/05/14 11:29:58;;;;;;;5.05;2.03;;;;;;;31.65;17.70;100623.69;5383702;32;44915;-71
2022/05/14 11:33:02;;;;;;;6.32;2.08;;;;;;;32.70;16.69;100583.03;5365094;32;34081;-67
2022/05/14 11:36:20;;;;;;;5.40;2.10;;;;;;;34.69;15.02;100591.81;5382609;32;34238;-70
2022/05/14 11:39:28;;;;;;;6.60;2.00;;;;;;;32.98;16.09;100598.53;5378303;32;47009;-67
2022/05/14 11:42:30;;;;;;;8.15;2.40;;;;;;;34.30;14.76;100596.22;5379540;32;34731;-67
2022/05/14 11:45:33;;;;;;;10.00;2.10;;;;;;;32.28;16.34;100603.84;5396565;32;34133;-72
2022/05/14 11:48:44;;;;;;;6.75;2.10;;;;;;;32.72;15.64;100594.59;5366887;32;35321;-72
2022/05/14 11:52:05;;;;;;;5.07;2.00;;;;;;;31.48;16.85;100612.19;5396985;32;35515;-69
2022/05/14 11:55:20;;;;;;;6.82;2.20;;;;;;;32.61;15.18;100597.84;5385408;32;35411;-68
2022/05/14 11:58:35;;;;;;;4.68;2.17;;;;;;;34.38;13.83;100598.72;5378291;32;46624;-67
2022/05/14 12:01:40;;;;;;;7.03;2.17;;;;;;;33.30;14.46;100586.13;5383072;32;34549;-68
2022/05/14 12:04:45;;;;;;;8.18;2.20;;;;;;;33.00;15.15;100593.72;5385359;32;34413;-68
2022/05/14 12:08:52;;;;;;;6.78;2.10;;;;;;;33.03;15.54;100590.59;5379436;32;35298;-67
2022/05/14 12:12:01;;;;;;;6.37;1.98;;;;;;;32.52;15.31;100572.66;5291554;33;35452;-71
2022/05/14 12:15:11;;;;;;;9.45;2.08;;;;;;;34.46;14.14;100575.91;5306055;32;34864;-69
2022/05/14 12:18:16;;;;;;;5.53;2.10;;;;;;;33.35;15.08;100583.59;5396523;32;34653;-68
2022/05/14 12:21:20;;;;;;;8.82;2.50;;;;;;;33.86;14.79;100575.81;5381264;32;34583;-71
2022/05/14 12:24:29;;;;;;;8.38;2.10;;;;;;;32.15;15.48;100582.00;5385784;32;44367;-70
2022/05/14 12:27:32;;;;;;;5.78;2.05;;;;;;;29.08;18.20;100595.53;5382231;32;34051;-68
2022/05/14 12:33:58;;;;;;;7.05;2.33;;;;;;;27.98;20.00;100582.63;5397867;32;47972;-71
2022/05/14 12:37:00;;;;;;;6.80;2.22;;;;;;;27.98;20.15;100601.53;5381709;32;36476;-68
2022/05/14 12:40:03;;;;;;;6.65;2.17;;;;;;;25.76;23.16;100596.81;5400289;32;35113;-70
2022/05/14 12:43:07;;;;;;;7.85;2.58;;;;;;;27.76;20.97;100589.53;5363982;32;34006;-71
2022/05/14 12:46:10;;;;;;;6.05;2.30;;;;;;;27.38;21.10;100586.37;5368440;32;35498;-67
2022/05/14 12:49:37;;;;;;;12.98;2.53;;;;;;;26.89;22.36;100590.66;5385917;32;35333;-70
2022/05/14 12:52:39;;;;;;;7.07;2.17;;;;;;;26.90;22.26;100571.63;5368452;32;34632;-71
2022/05/14 12:55:45;;;;;;;8.60;2.37;;;;;;;26.62;21.71;100580.91;5398479;32;34294;-69
2022/05/14 12:58:48;;;;;;;7.12;2.05;;;;;;;26.02;22.40;100583.44;5370064;32;34792;-68
2022/05/14 13:01:54;;;;;;;5.32;2.40;;;;;;;26.78;21.96;100564.81;5385733;32;46446;-67
2022/05/14 13:05:14;;;;;;;8.00;2.33;;;;;;;26.44;22.04;100580.97;5396793;32;34922;-69
2022/05/14 13:08:19;;;;;;;11.85;2.58;;;;;;;26.16;22.35;100573.00;5383123;32;34195;-68
2022/05/14 13:11:23;;;;;;;5.47;2.15;;;;;;;25.98;23.28;100565.91;5370919;32;44381;-66
2022/05/14 13:14:29;;;;;;;5.78;2.37;;;;;;;26.97;22.69;100563.72;5362908;32;34134;-72
2022/05/14 13:17:31;;;;;;;5.20;2.00;;;;;;;25.75;23.70;100558.31;5391009;32;34970;-69
2022/05/14 13:20:34;;;;;;;6.53;2.25;;;;;;;26.64;22.47;100563.56;5389013;32;36768;-67
2022/05/14 13:23:36;;;;;;;9.93;2.87;;;;;;;26.45;23.55;100558.41;5361190;32;34708;-71
2022/05/14 13:26:42;;;;;;;;;;;;;;;26.30;23.86;100555.41;5387580;32;34000;-72
2022/05/14 13:29:44;;;;;;;5.35;2.03;;;;;;;27.08;23.37;100547.31;5385429;32;34550;-70
2022/05/14 13:32:46;;;;;;;9.65;2.58;;;;;;;25.96;25.15;100547.25;5395330;32;34042;-68
2022/05/14 13:39:13;;;;;;;10.38;5.10;;;;;;;26.22;24.28;100544.59;5384225;32;35994;-67
2022/05/14 13:42:32;;;;;;;5.80;2.25;;;;;;;25.43;25.52;100545.34;5395387;32;35208;-70
2022/05/14 13:45:37;;;;;;;10.10;2.22;;;;;;;25.70;25.23;100528.31;5382655;32;35617;-67
2022/05/14 13:48:43;;;;;;;8.20;2.72;;;;;;;25.23;25.43;100536.53;5369603;32;34481;-68
2022/05/14 13:51:52;;;;;;;5.10;2.30;;;;;;;25.64;25.50;100543.22;5367105;32;35284;-67
2022/05/14 13:55:15;;;;;;;4.82;2.30;;;;;;;25.17;25.91;100523.69;5389013;32;45023;-70
2022/05/14 13:58:18;;;;;;;11.02;2.20;;;;;;;25.63;25.51;100525.37;5396835;32;34755;-68
2022/05/14 14:01:28;;;;;;;5.82;2.50;;;;;;;26.03;24.35;100521.38;5381512;32;44976;-68
2022/05/14 14:04:33;;;;;;;5.72;2.20;;;;;;;25.39;25.02;100520.59;5396298;32;34331;-71
2022/05/14 14:07:38;;;;;;;6.15;2.50;;;;;;;25.64;24.48;100512.75;5379249;32;34285;-66
2022/05/14 14:10:40;;;;;;;4.20;2.22;;;;;;;25.24;25.62;100518.56;5361513;32;33911;-71
2022/05/14 14:13:42;;;;;;;6.95;2.00;;;;;;;25.88;25.24;100512.97;5372281;32;36250;-69
2022/05/14 14:16:44;;;;;;;5.53;2.33;;;;;;;25.93;25.25;100504.44;5381843;32;34128;-67
2022/05/14 14:19:46;;;;;;;;;;;;;;;26.49;24.53;100499.66;5399980;32;34378;-69
2022/05/14 14:22:49;;;;;;;6.93;2.33;;;;;;;26.34;24.80;100507.41;5358509;32;35466;-70
2022/05/14 14:25:51;;;;;;;;;;;;;;;26.06;25.06;100494.13;5362956;32;44603;-67
2022/05/14 14:28:53;;;;;;;8.63;2.58;;;;;;;26.49;24.94;100489.72;5353116;32;35008;-69
2022/05/14 14:31:56;;;;;;;6.57;2.47;;;;;;;25.70;25.91;100490.63;5363898;32;35708;-70
2022/05/14 14:34:59;;;;;;;7.60;2.28;;;;;;;26.18;25.30;100498.25;5390404;32;34647;-70
2022/05/14 14:38:01;;;;;;;6.12;2.22;;;;;;;26.62;24.37;100502.75;5380978;32;34811;-69
2022/05/14 14:41:03;;;;;;;;;;;;;;;26.32;24.47;100488.72;5398007;32;34827;-68
2022/05/14 14:44:05;;;;;;;6.25;2.33;;;;;;;25.91;25.60;100493.00;5381639;32;34607;-70
2022/05/14 14:47:09;;;;;;;6.35;2.00;;;;;;;23.90;27.03;100500.91;5393672;32;35474;-70
2022/05/14 14:50:16;;;;;;;12.88;2.20;;;;;;;24.48;26.28;100500.81;5369805;32;35202;-71
2022/05/14 14:53:19;;;;;;;7.15;1.87;;;;;;;24.61;26.39;100505.84;5379777;32;36313;-67